Taiheimaru — JM6135 — position and weather

sailwx.info

Track history (hours):
 
Tides and Currents Weather Stations Pressure Air Temp Water Temp Dewpoint Dewpoint Depression Visibility Wind Speed Wind Dir Waves Ship Positions

Taiheimaru

Last reported at 2014-Oct-24 05:25 UTC. Time now 2014-Oct-24 11:30 UTC.
Position N 34°37' E 134°56'.

Length 78 m.

Type: Cargo ship. MMSI: 431400082.

Date/timePositionNaut miles runAvg speedWind from/ knotsBaromVisibWave heightAir tempDewpointWater temp
2014-Oct-24 05:25N 34°37' E 134°56'7 7.7
2014-Oct-24 04:32N 34°36' E 135°04'1210.5
2014-Oct-24 03:24N 34°38' E 135°18'6 6.4
2014-Oct-24 02:31N 34°38' E 135°25'0 0.1
2014-Oct-24 01:30N 34°37' E 135°25'9 9.1
2014-Oct-24 00:31N 34°40' E 135°14'0 0.0
2014-Oct-23 23:31N 34°40' E 135°14'1 1.0
2014-Oct-23 22:24N 34°38' E 135°15'0 0.1
2014-Oct-23 21:30N 34°38' E 135°15'8 8.5
2014-Oct-23 20:33N 34°35' E 135°06'137 9.0
2014-Oct-23 05:21N 34°17' E 132°22'5 6.0
2014-Oct-23 04:30N 34°21' E 132°26'0 0.0
2014-Oct-23 03:30N 34°21' E 132°26'134 7.1
2014-Oct-22 08:33N 34°36' E 135°07'7 6.4
2014-Oct-22 07:30N 34°40' E 135°14'0 0.0
2014-Oct-22 06:30N 34°40' E 135°14'2 2.2
2014-Oct-22 05:28N 34°41' E 135°13'0 0.0
2014-Oct-22 04:30N 34°41' E 135°13'0 0.0
2014-Oct-22 03:30N 34°41' E 135°13'0 0.0
2014-Oct-22 02:24N 34°41' E 135°13'0 0.1
2014-Oct-22 01:31N 34°41' E 135°13'0 0.0
2014-Oct-22 00:13N 34°41' E 135°13'0 0.1
2014-Oct-21 23:28N 34°41' E 135°13'0 0.0
2014-Oct-21 22:24N 34°41' E 135°13'5 6.1
2014-Oct-21 21:32N 34°36' E 135°11'12 0.3
2014-Oct-20 11:12N 34°37' E 134°57'812.1
2014-Oct-20 10:33N 34°36' E 135°06'7 6.8
2014-Oct-20 09:28N 34°40' E 135°14'0 0.0
2014-Oct-20 08:31N 34°40' E 135°14'0 0.0
2014-Oct-20 07:16N 34°40' E 135°14'1 1.0
2014-Oct-20 06:33N 34°40' E 135°15'2 2.2
2014-Oct-20 05:28N 34°41' E 135°13'0 0.0
2014-Oct-20 04:19N 34°41' E 135°13'0 0.0
2014-Oct-20 03:12N 34°41' E 135°13'3 4.5
2014-Oct-20 02:33N 34°39' E 135°15'15 0.3
2014-Oct-18 05:03N 34°37' E 134°57'510.4
2014-Oct-18 04:33N 34°36' E 135°03'1210.6
2014-Oct-18 03:25N 34°38' E 135°18'6 3.2
2014-Oct-18 01:31N 34°38' E 135°25'6 6.6
2014-Oct-18 00:33N 34°39' E 135°18'3 2.3
2014-Oct-17 23:23N 34°39' E 135°14'1 1.4
2014-Oct-17 22:30N 34°38' E 135°15'0 0.0
2014-Oct-17 21:31N 34°38' E 135°15'0 0.0
2014-Oct-17 20:32N 34°38' E 135°15'0 0.1
2014-Oct-17 19:32N 34°38' E 135°15'10 9.6
2014-Oct-17 18:30N 34°35' E 135°04'7 0.5
2014-Oct-17 03:19N 34°37' E 134°55'811.0
2014-Oct-17 02:33N 34°36' E 135°06'8 6.8
2014-Oct-17 01:21N 34°40' E 135°14'0 0.0
2014-Oct-17 00:33N 34°40' E 135°14'0 0.0
2014-Oct-16 23:27N 34°40' E 135°14'1 1.0
2014-Oct-16 22:22N 34°38' E 135°15'0 0.0
2014-Oct-16 21:09N 34°38' E 135°15'0 0.0
2014-Oct-16 20:28N 34°38' E 135°15'0 0.0
2014-Oct-16 19:28N 34°38' E 135°15'0 0.0
2014-Oct-16 18:22N 34°38' E 135°15'3 2.9
2014-Oct-16 17:30N 34°37' E 135°13'135 9.4
2014-Oct-16 03:14N 34°13' E 132°32'711.0
2014-Oct-16 02:33N 34°20' E 132°28'5 4.3
2014-Oct-16 01:27N 34°17' E 132°23'  
Track history (hours):
 
Tides and Currents Weather Stations Pressure Air Temp Water Temp Dewpoint Dewpoint Depression Visibility Wind Speed Wind Dir Waves Ship Positions

Taiheimaru

Last reported at 2014-Oct-24 05:25 UTC. Time now 2014-Oct-24 11:30 UTC.
Position N 34°37' E 134°56'.

Length 78 m.

Type: Cargo ship. MMSI: 431400082.

Date/timePositionNaut miles runAvg speedWind from/ knotsBaromVisibWave heightAir tempDewpointWater temp
2014-Oct-24 05:25N 34°37' E 134°56'7 7.7
2014-Oct-24 04:32N 34°36' E 135°04'1210.5
2014-Oct-24 03:24N 34°38' E 135°18'6 6.4
2014-Oct-24 02:31N 34°38' E 135°25'0 0.1
2014-Oct-24 01:30N 34°37' E 135°25'9 9.1
2014-Oct-24 00:31N 34°40' E 135°14'0 0.0
2014-Oct-23 23:31N 34°40' E 135°14'1 1.0
2014-Oct-23 22:24N 34°38' E 135°15'0 0.1
2014-Oct-23 21:30N 34°38' E 135°15'8 8.5
2014-Oct-23 20:33N 34°35' E 135°06'137 9.0
2014-Oct-23 05:21N 34°17' E 132°22'5 6.0
2014-Oct-23 04:30N 34°21' E 132°26'0 0.0
2014-Oct-23 03:30N 34°21' E 132°26'134 7.1
2014-Oct-22 08:33N 34°36' E 135°07'7 6.4
2014-Oct-22 07:30N 34°40' E 135°14'0 0.0
2014-Oct-22 06:30N 34°40' E 135°14'2 2.2
2014-Oct-22 05:28N 34°41' E 135°13'0 0.0
2014-Oct-22 04:30N 34°41' E 135°13'0 0.0
2014-Oct-22 03:30N 34°41' E 135°13'0 0.0
2014-Oct-22 02:24N 34°41' E 135°13'0 0.1
2014-Oct-22 01:31N 34°41' E 135°13'0 0.0
2014-Oct-22 00:13N 34°41' E 135°13'0 0.1
2014-Oct-21 23:28N 34°41' E 135°13'0 0.0
2014-Oct-21 22:24N 34°41' E 135°13'5 6.1
2014-Oct-21 21:32N 34°36' E 135°11'12 0.3
2014-Oct-20 11:12N 34°37' E 134°57'812.1
2014-Oct-20 10:33N 34°36' E 135°06'7 6.8
2014-Oct-20 09:28N 34°40' E 135°14'0 0.0
2014-Oct-20 08:31N 34°40' E 135°14'0 0.0
2014-Oct-20 07:16N 34°40' E 135°14'1 1.0
2014-Oct-20 06:33N 34°40' E 135°15'2 2.2
2014-Oct-20 05:28N 34°41' E 135°13'0 0.0
2014-Oct-20 04:19N 34°41' E 135°13'0 0.0
2014-Oct-20 03:12N 34°41' E 135°13'3 4.5
2014-Oct-20 02:33N 34°39' E 135°15'15 0.3
2014-Oct-18 05:03N 34°37' E 134°57'510.4
2014-Oct-18 04:33N 34°36' E 135°03'1210.6
2014-Oct-18 03:25N 34°38' E 135°18'6 3.2
2014-Oct-18 01:31N 34°38' E 135°25'6 6.6
2014-Oct-18 00:33N 34°39' E 135°18'3 2.3
2014-Oct-17 23:23N 34°39' E 135°14'1 1.4
2014-Oct-17 22:30N 34°38' E 135°15'0 0.0
2014-Oct-17 21:31N 34°38' E 135°15'0 0.0
2014-Oct-17 20:32N 34°38' E 135°15'0 0.1
2014-Oct-17 19:32N 34°38' E 135°15'10 9.6
2014-Oct-17 18:30N 34°35' E 135°04'7 0.5
2014-Oct-17 03:19N 34°37' E 134°55'811.0
2014-Oct-17 02:33N 34°36' E 135°06'8 6.8
2014-Oct-17 01:21N 34°40' E 135°14'0 0.0
2014-Oct-17 00:33N 34°40' E 135°14'0 0.0
2014-Oct-16 23:27N 34°40' E 135°14'1 1.0
2014-Oct-16 22:22N 34°38' E 135°15'0 0.0
2014-Oct-16 21:09N 34°38' E 135°15'0 0.0
2014-Oct-16 20:28N 34°38' E 135°15'0 0.0
2014-Oct-16 19:28N 34°38' E 135°15'0 0.0
2014-Oct-16 18:22N 34°38' E 135°15'3 2.9
2014-Oct-16 17:30N 34°37' E 135°13'135 9.4
2014-Oct-16 03:14N 34°13' E 132°32'711.0
2014-Oct-16 02:33N 34°20' E 132°28'5 4.3
2014-Oct-16 01:27N 34°17' E 132°23'  

Dump ship's entire track history